createdAt,value
2018-07-17T00:01:11.355Z,99785.58
2018-07-17T00:06:15.618Z,99790.20
2018-07-17T00:11:19.394Z,99791.44
2018-07-17T00:16:23.187Z,99784.51
2018-07-17T00:21:27.166Z,99785.16
2018-07-17T00:26:30.672Z,99782.33
2018-07-17T00:31:34.517Z,99796.80
2018-07-17T00:36:38.081Z,99794.67
2018-07-17T00:41:41.571Z,99805.91
2018-07-17T00:46:45.070Z,99808.91
2018-07-17T00:51:48.738Z,99806.64
2018-07-17T00:56:52.231Z,99801.66
2018-07-17T01:02:00.976Z,99794.27
2018-07-17T01:07:09.893Z,99787.61
2018-07-17T01:12:13.413Z,99789.00
2018-07-17T01:17:17.986Z,99792.52
2018-07-17T01:22:21.551Z,99796.09
2018-07-17T01:27:25.111Z,99788.33
2018-07-17T01:32:28.645Z,99791.66
2018-07-17T01:37:32.418Z,99786.36
2018-07-17T01:42:36.042Z,99786.81
2018-07-17T01:47:39.527Z,99781.70
2018-07-17T01:52:43.147Z,99778.58
2018-07-17T01:57:46.709Z,99778.80
2018-07-17T02:02:50.403Z,99781.72
2018-07-17T02:07:53.921Z,99777.91
2018-07-17T02:12:57.498Z,99784.30
2018-07-17T02:18:00.975Z,99789.48
2018-07-17T02:23:04.726Z,99781.36
2018-07-17T02:28:08.365Z,99787.61
2018-07-17T02:33:11.867Z,99785.69
2018-07-17T02:38:15.398Z,99779.55
2018-07-17T02:43:19.026Z,99785.74
2018-07-17T02:48:22.823Z,99790.58
2018-07-17T02:53:26.406Z,99791.27
2018-07-17T02:58:30.781Z,99789.52
2018-07-17T03:03:34.263Z,99789.45
2018-07-17T03:08:37.765Z,99794.23
2018-07-17T03:13:41.302Z,99791.70
2018-07-17T03:18:44.807Z,99797.47
2018-07-17T03:23:48.314Z,99811.81
2018-07-17T03:28:52.105Z,99818.41
2018-07-17T03:33:55.883Z,99816.16
2018-07-17T03:38:59.417Z,99817.84
2018-07-17T03:44:03.108Z,99816.75
2018-07-17T03:49:07.041Z,99813.61
2018-07-17T03:54:10.646Z,99819.13
2018-07-17T03:59:14.198Z,99817.25
2018-07-17T04:04:17.885Z,99820.32
2018-07-17T04:09:21.370Z,99825.55
2018-07-17T04:14:24.828Z,99824.80
2018-07-17T04:19:28.410Z,99820.38
2018-07-17T04:24:31.993Z,99825.34
2018-07-17T04:29:35.527Z,99826.55
2018-07-17T04:34:39.390Z,99827.41
2018-07-17T04:39:42.986Z,99833.39
2018-07-17T04:44:46.506Z,99837.44
2018-07-17T04:49:50.140Z,99826.73
2018-07-17T04:54:54.043Z,99840.95
2018-07-17T04:59:57.666Z,99844.12
2018-07-17T05:05:04.338Z,99838.03
2018-07-17T05:10:08.136Z,99840.74
2018-07-17T05:15:11.929Z,99836.67
2018-07-17T05:20:15.665Z,99844.59
2018-07-17T05:25:19.082Z,99852.75
2018-07-17T05:30:22.763Z,99851.80
2018-07-17T05:35:26.893Z,99853.61
2018-07-17T05:40:31.177Z,99858.03
2018-07-17T05:45:34.872Z,99859.13
2018-07-17T05:50:38.361Z,99864.96
2018-07-17T05:55:41.976Z,99864.32
2018-07-17T06:00:45.652Z,99865.46
2018-07-17T06:05:49.225Z,99866.74
2018-07-17T06:10:52.838Z,99871.44
2018-07-17T06:15:56.772Z,99875.48
2018-07-17T06:21:00.396Z,99878.06
2018-07-17T06:26:04.315Z,99883.31
2018-07-17T06:31:07.882Z,99882.66
2018-07-17T06:36:12.395Z,99877.84
2018-07-17T06:41:15.947Z,99876.32
2018-07-17T06:46:19.597Z,99878.00
2018-07-17T06:51:23.129Z,99869.42
2018-07-17T06:56:27.126Z,99870.64
2018-07-17T07:01:30.724Z,99864.45
2018-07-17T07:06:34.278Z,99860.44
2018-07-17T07:11:38.326Z,99852.62
2018-07-17T07:16:42.334Z,99847.52
2018-07-17T07:21:45.806Z,99849.69
2018-07-17T07:26:49.406Z,99848.06
2018-07-17T07:31:55.301Z,99851.05
2018-07-17T07:36:59.497Z,99849.97
2018-07-17T07:42:04.233Z,99838.59
2018-07-17T07:47:08.505Z,99839.91
2018-07-17T07:52:12.742Z,99843.09
2018-07-17T07:57:17.434Z,99844.70
2018-07-17T08:02:22.058Z,99842.51
2018-07-17T08:07:26.438Z,99843.23
2018-07-17T08:12:31.195Z,99842.33
2018-07-17T08:17:35.520Z,99835.74
2018-07-17T08:22:39.888Z,99839.78
2018-07-17T08:27:45.518Z,99842.30
2018-07-17T08:32:49.980Z,99844.14
2018-07-17T08:37:57.885Z,99842.16
2018-07-17T08:43:02.115Z,99833.77
2018-07-17T08:48:06.007Z,99837.95
2018-07-17T08:53:10.336Z,99834.69
2018-07-17T08:58:14.940Z,99832.94
2018-07-17T09:03:19.415Z,99833.13
2018-07-17T09:08:24.170Z,99835.34
2018-07-17T09:13:28.322Z,99827.95
2018-07-17T09:18:32.757Z,99841.23
2018-07-17T09:23:37.371Z,99837.33
2018-07-17T09:28:42.626Z,99838.58
2018-07-17T09:33:46.855Z,99835.16
2018-07-17T09:38:51.001Z,99831.43
2018-07-17T09:43:55.379Z,99822.72
2018-07-17T09:48:59.885Z,99826.45
2018-07-17T09:54:04.014Z,99824.43
2018-07-17T09:59:09.311Z,99817.06
2018-07-17T10:04:15.580Z,99822.62
2018-07-17T10:09:20.014Z,99819.64
2018-07-17T10:14:25.059Z,99812.16
2018-07-17T10:19:29.343Z,99802.75
2018-07-17T10:24:33.550Z,99818.12
2018-07-17T10:29:38.030Z,99812.69
2018-07-17T10:34:42.430Z,99805.92
2018-07-17T10:39:46.486Z,99803.57
2018-07-17T10:44:50.549Z,99801.66
2018-07-17T10:49:54.785Z,99798.16
2018-07-17T10:54:59.561Z,99799.95
2018-07-17T11:00:08.581Z,99800.05
2018-07-17T11:05:13.836Z,99800.00
2018-07-17T11:10:18.377Z,99775.00
2018-07-17T11:15:22.351Z,99785.61
2018-07-17T11:20:26.210Z,99765.05
2018-07-17T11:25:30.746Z,99781.34
2018-07-17T11:30:34.985Z,99764.85
2018-07-17T11:35:39.192Z,99764.40
2018-07-17T11:40:44.059Z,99762.16
2018-07-17T11:45:48.779Z,99748.81
2018-07-17T11:50:53.049Z,99749.81
2018-07-17T11:55:57.955Z,99750.59
2018-07-17T12:01:01.621Z,99745.47
2018-07-17T12:06:05.341Z,99740.25
2018-07-17T12:11:09.324Z,99743.05
2018-07-17T12:16:13.589Z,99735.38
2018-07-17T12:21:17.437Z,99729.30
2018-07-17T12:26:21.972Z,99714.42
2018-07-17T12:31:26.086Z,99731.10
2018-07-17T12:36:29.909Z,99717.89
2018-07-17T12:41:34.217Z,99721.16
2018-07-17T12:46:38.347Z,99704.86
2018-07-17T12:51:42.478Z,99702.62
2018-07-17T12:56:46.845Z,99710.72
2018-07-17T13:01:50.716Z,99711.36
2018-07-17T13:06:55.562Z,99705.05
2018-07-17T13:11:59.628Z,99701.19
2018-07-17T13:17:04.386Z,99701.82
2018-07-17T13:22:09.317Z,99695.73
2018-07-17T13:27:13.412Z,99682.97
2018-07-17T13:32:17.563Z,99674.19
2018-07-17T13:37:22.251Z,99688.16
2018-07-17T13:42:26.670Z,99679.44
2018-07-17T13:47:30.649Z,99671.21
2018-07-17T13:52:35.036Z,99663.33
2018-07-17T13:57:38.691Z,99660.73
2018-07-17T14:02:42.530Z,99653.61
2018-07-17T14:07:46.660Z,99659.95
2018-07-17T14:12:50.919Z,99651.13
2018-07-17T14:17:55.825Z,99651.14
2018-07-17T14:23:00.361Z,99637.94
2018-07-17T14:28:04.234Z,99637.33
2018-07-17T14:33:08.379Z,99641.45
2018-07-17T14:38:12.506Z,99630.02
2018-07-17T14:43:16.914Z,99642.23
2018-07-17T14:48:22.104Z,99630.36
2018-07-17T14:53:28.503Z,99632.65
2018-07-17T14:58:32.646Z,99632.79
2018-07-17T15:03:37.858Z,99637.95
2018-07-17T15:08:42.822Z,99621.92
2018-07-17T15:13:46.919Z,99626.63
2018-07-17T15:18:51.282Z,99626.08
2018-07-17T15:23:55.071Z,99631.83
2018-07-17T15:28:59.073Z,99614.05
2018-07-17T15:34:03.209Z,99625.80
2018-07-17T15:39:10.135Z,99634.13
2018-07-17T15:44:14.548Z,99628.45
2018-07-17T15:49:18.679Z,99623.28
2018-07-17T15:54:23.137Z,99615.58
2018-07-17T15:59:27.542Z,99638.45
2018-07-17T16:04:31.819Z,99634.16
2018-07-17T16:09:36.652Z,99622.11
2018-07-17T16:14:44.396Z,99626.94
2018-07-17T16:19:48.615Z,99627.33
2018-07-17T16:24:53.344Z,99619.58
2018-07-17T16:29:57.740Z,99615.85
2018-07-17T16:35:07.859Z,99627.03
2018-07-17T16:40:12.184Z,99624.94
2018-07-17T16:45:16.374Z,99622.14
2018-07-17T16:50:20.674Z,99634.63
2018-07-17T16:55:25.458Z,99628.98
2018-07-17T17:00:29.382Z,99620.95
2018-07-17T17:05:33.405Z,99628.28
2018-07-17T17:10:37.430Z,99625.01
2018-07-17T17:15:41.414Z,99623.45
2018-07-17T17:20:45.583Z,99629.05
2018-07-17T17:25:50.042Z,99622.81
2018-07-17T17:30:55.642Z,99622.84
2018-07-17T17:35:59.543Z,99634.27
2018-07-17T17:41:03.348Z,99637.05
2018-07-17T17:46:08.043Z,99637.55
2018-07-17T17:51:12.120Z,99630.39
2018-07-17T17:56:17.623Z,99635.45
2018-07-17T18:01:21.901Z,99630.53
2018-07-17T18:06:26.470Z,99631.53
2018-07-17T18:11:30.105Z,99635.55
2018-07-17T18:16:33.786Z,99636.66
2018-07-17T18:21:37.268Z,99638.19
2018-07-17T18:26:40.990Z,99646.67
2018-07-17T18:31:44.491Z,99650.48
2018-07-17T18:36:48.157Z,99645.48
2018-07-17T18:41:52.052Z,99653.61
2018-07-17T18:46:55.702Z,99660.41
2018-07-17T18:51:59.287Z,99657.45
2018-07-17T18:57:02.984Z,99672.27
2018-07-17T19:02:06.810Z,99668.84
2018-07-17T19:07:10.458Z,99675.73
2018-07-17T19:12:14.073Z,99683.28
2018-07-17T19:17:17.708Z,99685.94
2018-07-17T19:22:21.405Z,99685.11
2018-07-17T19:27:24.980Z,99695.73
2018-07-17T19:32:28.611Z,99696.32
2018-07-17T19:37:32.269Z,99702.98
2018-07-17T19:42:35.881Z,99699.50
2018-07-17T19:47:39.380Z,99704.72
2018-07-17T19:52:43.104Z,99710.05
2018-07-17T19:57:46.578Z,99712.53
2018-07-17T20:02:50.254Z,99720.66
2018-07-17T20:07:53.754Z,99724.55
2018-07-17T20:12:57.383Z,99721.83
2018-07-17T20:18:01.186Z,99730.30
2018-07-17T20:23:04.978Z,99729.91
2018-07-17T20:28:08.653Z,99732.54
2018-07-17T20:33:12.195Z,99728.48
2018-07-17T20:38:15.794Z,99738.80
2018-07-17T20:43:19.225Z,99736.48
2018-07-17T20:48:23.551Z,99739.63
2018-07-17T20:53:27.149Z,99743.20
2018-07-17T20:58:30.872Z,99748.55
2018-07-17T21:03:34.546Z,99777.87
2018-07-17T21:08:38.285Z,99780.02
2018-07-17T21:13:41.862Z,99779.59
2018-07-17T21:18:45.645Z,99790.21
2018-07-17T21:23:49.401Z,99783.77
2018-07-17T21:28:53.766Z,99790.50
2018-07-17T21:33:57.366Z,99799.19
2018-07-17T21:39:01.009Z,99800.00
2018-07-17T21:44:04.692Z,99808.48
2018-07-17T21:49:08.225Z,99820.34
2018-07-17T21:54:12.002Z,99828.43
2018-07-17T21:59:15.575Z,99824.05
2018-07-17T22:04:19.642Z,99830.36
2018-07-17T22:09:23.390Z,99827.80
2018-07-17T22:14:27.061Z,99830.72
2018-07-17T22:19:30.546Z,99828.90
2018-07-17T22:24:34.221Z,99828.67
2018-07-17T22:29:37.736Z,99827.03
2018-07-17T22:34:41.306Z,99826.75
2018-07-17T22:39:44.859Z,99822.13
2018-07-17T22:44:48.366Z,99827.64
2018-07-17T22:49:51.965Z,99835.56
2018-07-17T22:54:55.479Z,99830.70
2018-07-17T22:59:59.041Z,99835.52
2018-07-17T23:05:02.970Z,99837.62
2018-07-17T23:10:07.469Z,99833.10
2018-07-17T23:15:11.443Z,99842.33
2018-07-17T23:20:14.965Z,99849.97
2018-07-17T23:25:19.164Z,99849.97
2018-07-17T23:30:22.715Z,99849.94
2018-07-17T23:35:26.638Z,99855.35
2018-07-17T23:40:30.410Z,99849.08
2018-07-17T23:45:34.779Z,99849.34
2018-07-17T23:50:38.341Z,99852.48
2018-07-17T23:55:42.098Z,99858.47
